createdAt,value
2018-02-05T00:00:39.253Z,91.36
2018-02-05T00:03:06.673Z,91.31
2018-02-05T00:05:34.077Z,91.54
2018-02-05T00:08:01.501Z,91.73
2018-02-05T00:10:28.906Z,91.65
2018-02-05T00:12:56.321Z,91.67
2018-02-05T00:15:23.730Z,91.74
2018-02-05T00:17:51.163Z,91.80
2018-02-05T00:20:18.571Z,92.17
2018-02-05T00:22:45.977Z,92.25
2018-02-05T00:25:13.405Z,92.38
2018-02-05T00:27:40.808Z,92.54
2018-02-05T00:30:08.234Z,92.39
2018-02-05T00:32:35.643Z,92.40
2018-02-05T00:35:03.064Z,92.57
2018-02-05T00:37:30.468Z,92.74
2018-02-05T00:39:58.692Z,92.96
2018-02-05T00:42:26.101Z,92.94
2018-02-05T00:44:53.514Z,93.16
2018-02-05T00:47:20.916Z,93.36
2018-02-05T00:49:48.332Z,93.45
2018-02-05T00:52:15.748Z,93.45
2018-02-05T00:54:43.152Z,93.55
2018-02-05T00:57:10.560Z,93.80
2018-02-05T00:59:37.972Z,93.75
2018-02-05T01:02:05.383Z,93.91
2018-02-05T01:04:33.791Z,93.82
2018-02-05T01:07:01.193Z,93.78
2018-02-05T01:09:28.611Z,93.75
2018-02-05T01:11:56.242Z,93.71
2018-02-05T01:14:23.800Z,93.71
2018-02-05T01:16:51.186Z,93.60
2018-02-05T01:19:18.592Z,93.74
2018-02-05T01:21:45.998Z,93.69
2018-02-05T01:24:13.409Z,93.77
2018-02-05T01:26:40.826Z,93.62
2018-02-05T01:29:08.243Z,93.37
2018-02-05T01:31:35.657Z,93.21
2018-02-05T01:34:03.069Z,93.06
2018-02-05T01:36:30.489Z,92.85
2018-02-05T01:38:57.906Z,92.77
2018-02-05T01:41:25.325Z,92.75
2018-02-05T01:43:52.732Z,92.88
2018-02-05T01:46:20.153Z,92.61
2018-02-05T01:48:47.564Z,92.77
2018-02-05T01:51:15.031Z,93.05
2018-02-05T01:53:42.405Z,93.08
2018-02-05T01:56:10.600Z,93.27
2018-02-05T01:58:38.008Z,93.58
2018-02-05T02:01:05.429Z,93.70
2018-02-05T02:03:32.835Z,93.64
2018-02-05T02:06:00.254Z,93.52
2018-02-05T02:08:27.672Z,93.65
2018-02-05T02:10:55.308Z,93.71
2018-02-05T02:13:22.716Z,93.73
2018-02-05T02:15:50.141Z,93.59
2018-02-05T02:18:17.552Z,93.63
2018-02-05T02:20:44.982Z,93.55
2018-02-05T02:23:12.396Z,93.57
2018-02-05T02:25:39.814Z,93.45
2018-02-05T02:28:07.231Z,93.41
2018-02-05T02:30:34.662Z,93.14
2018-02-05T02:33:02.067Z,92.73
2018-02-05T02:35:29.472Z,92.72
2018-02-05T02:37:56.892Z,92.47
2018-02-05T02:40:24.313Z,92.23
2018-02-05T02:42:51.728Z,92.17
2018-02-05T02:45:19.935Z,92.15
2018-02-05T02:47:47.354Z,91.92
2018-02-05T02:50:14.772Z,91.24
2018-02-05T02:52:42.192Z,91.18
2018-02-05T02:55:09.613Z,91.15
2018-02-05T02:57:37.035Z,91.12
2018-02-05T03:00:04.449Z,91.14
2018-02-05T03:02:32.290Z,91.20
2018-02-05T03:04:59.708Z,91.19
2018-02-05T03:07:27.133Z,90.83
2018-02-05T03:09:54.541Z,91.01
2018-02-05T03:12:21.968Z,91.13
2018-02-05T03:14:49.377Z,90.86
2018-02-05T03:17:16.802Z,90.80
2018-02-05T03:19:44.216Z,90.97
2018-02-05T03:22:11.635Z,91.32
2018-02-05T03:24:39.057Z,91.34
2018-02-05T03:27:06.473Z,91.41
2018-02-05T03:29:33.887Z,91.51
2018-02-05T03:32:01.317Z,91.57
2018-02-05T03:34:28.721Z,91.16
2018-02-05T03:36:56.148Z,91.11
2018-02-05T03:39:23.560Z,91.20
2018-02-05T03:41:50.978Z,90.96
2018-02-05T03:44:18.383Z,90.67
2018-02-05T03:46:45.793Z,90.85
2018-02-05T03:49:13.210Z,90.85
2018-02-05T03:51:40.617Z,90.77
2018-02-05T03:54:08.052Z,90.83
2018-02-05T03:56:35.460Z,90.66
2018-02-05T03:59:02.891Z,90.88
2018-02-05T04:01:30.300Z,90.74
2018-02-05T04:03:58.668Z,90.90
2018-02-05T04:06:26.094Z,90.63
2018-02-05T04:08:53.512Z,90.74
2018-02-05T04:11:20.942Z,90.46
2018-02-05T04:13:48.350Z,90.56
2018-02-05T04:16:15.755Z,90.49
2018-02-05T04:18:43.177Z,90.38
2018-02-05T04:21:10.596Z,90.47
2018-02-05T04:23:38.018Z,90.49
2018-02-05T04:26:05.426Z,90.17
2018-02-05T04:28:32.892Z,90.14
2018-02-05T04:31:00.301Z,90.19
2018-02-05T04:33:27.712Z,90.29
2018-02-05T04:35:55.140Z,90.04
2018-02-05T04:38:22.563Z,90.02
2018-02-05T04:40:49.979Z,89.73
2018-02-05T04:43:17.411Z,90.17
2018-02-05T04:45:44.824Z,89.87
2018-02-05T04:48:12.257Z,89.78
2018-02-05T04:50:39.673Z,89.75
2018-02-05T04:53:07.092Z,90.14
2018-02-05T04:55:34.508Z,90.09
2018-02-05T04:58:01.932Z,90.06
2018-02-05T05:00:29.347Z,89.87
2018-02-05T05:02:56.769Z,90.11
2018-02-05T05:05:24.181Z,89.98
2018-02-05T05:07:51.613Z,90.05
2018-02-05T05:10:19.812Z,90.13
2018-02-05T05:12:47.222Z,90.12
2018-02-05T05:15:14.647Z,89.83
2018-02-05T05:17:42.061Z,89.61
2018-02-05T05:20:10.470Z,89.50
2018-02-05T05:22:37.885Z,89.36
2018-02-05T05:27:39.102Z,89.43
2018-02-05T05:30:06.520Z,89.28
2018-02-05T05:32:33.935Z,89.32
2018-02-05T05:35:01.680Z,89.55
2018-02-05T05:37:29.083Z,89.37
2018-02-05T05:39:56.513Z,89.43
2018-02-05T05:42:23.925Z,89.29
2018-02-05T05:44:51.349Z,89.11
2018-02-05T05:47:18.759Z,89.06
2018-02-05T05:49:46.180Z,89.10
2018-02-05T05:52:13.598Z,89.30
2018-02-05T05:54:41.026Z,89.51
2018-02-05T05:57:08.437Z,88.99
2018-02-05T05:59:35.869Z,89.10
2018-02-05T06:02:03.282Z,89.04
2018-02-05T06:04:30.706Z,88.88
2018-02-05T06:06:58.104Z,88.63
2018-02-05T06:09:25.527Z,88.35
2018-02-05T06:11:52.937Z,88.82
2018-02-05T06:14:20.402Z,88.80
2018-02-05T06:16:47.813Z,88.70
2018-02-05T06:19:15.220Z,88.82
2018-02-05T06:21:42.657Z,88.48
2018-02-05T06:24:10.064Z,88.37
2018-02-05T06:26:37.484Z,88.39
2018-02-05T06:29:04.897Z,88.37
2018-02-05T06:31:32.330Z,88.57
2018-02-05T06:33:59.745Z,88.53
2018-02-05T06:36:27.164Z,88.70
2018-02-05T06:38:54.581Z,88.62
2018-02-05T06:41:22.007Z,88.44
2018-02-05T06:43:49.418Z,88.27
2018-02-05T06:46:16.841Z,88.33
2018-02-05T06:48:44.270Z,88.73
2018-02-05T06:51:23.554Z,88.56
2018-02-05T06:54:02.728Z,88.66
2018-02-05T06:56:30.144Z,88.81
2018-02-05T06:58:57.566Z,88.72
2018-02-05T07:01:24.981Z,88.74
2018-02-05T07:03:52.392Z,88.68
2018-02-05T07:06:19.813Z,88.86
2018-02-05T07:08:47.229Z,88.81
2018-02-05T07:11:14.652Z,88.76
2018-02-05T07:13:42.064Z,88.96
2018-02-05T07:16:09.485Z,89.00
2018-02-05T07:18:36.892Z,88.92
2018-02-05T07:21:04.313Z,88.90
2018-02-05T07:23:31.721Z,88.80
2018-02-05T07:25:59.137Z,88.85
2018-02-05T07:28:26.549Z,88.59
2018-02-05T07:30:53.981Z,88.81
2018-02-05T07:33:21.409Z,88.73
2018-02-05T07:35:48.816Z,88.64
2018-02-05T07:38:16.245Z,88.90
2018-02-05T07:40:43.657Z,88.92
2018-02-05T07:43:11.086Z,88.78
2018-02-05T07:45:38.495Z,88.70
2018-02-05T07:48:06.578Z,88.69
2018-02-05T07:50:33.980Z,88.86
2018-02-05T07:53:01.404Z,88.70
2018-02-05T07:55:28.832Z,88.84
2018-02-05T07:57:56.257Z,89.00
2018-02-05T08:00:23.665Z,89.01
2018-02-05T08:02:51.090Z,88.87
2018-02-05T08:05:18.500Z,89.20
2018-02-05T08:07:45.921Z,89.26
2018-02-05T08:10:13.337Z,89.27
2018-02-05T08:12:40.758Z,89.13
2018-02-05T08:15:08.164Z,89.11
2018-02-05T08:17:35.594Z,89.02
2018-02-05T08:20:03.004Z,88.90
2018-02-05T08:22:30.424Z,88.61
2018-02-05T08:24:57.837Z,88.63
2018-02-05T08:27:25.260Z,88.52
2018-02-05T08:29:52.681Z,88.30
2018-02-05T08:32:20.096Z,88.46
2018-02-05T08:34:47.521Z,88.46
2018-02-05T08:37:14.944Z,87.76
2018-02-05T08:39:42.365Z,87.64
2018-02-05T08:42:09.790Z,87.62
2018-02-05T08:44:37.196Z,87.24
2018-02-05T08:47:04.640Z,87.54
2018-02-05T08:49:32.048Z,87.19
2018-02-05T08:52:00.392Z,87.05
2018-02-05T08:54:27.837Z,86.89
2018-02-05T08:56:55.242Z,86.54
2018-02-05T08:59:22.663Z,85.79
2018-02-05T09:01:50.064Z,85.30
2018-02-05T09:04:17.476Z,85.73
2018-02-05T09:06:44.880Z,85.47
2018-02-05T09:09:12.294Z,84.61
2018-02-05T09:11:39.760Z,84.79
2018-02-05T09:14:07.178Z,84.83
2018-02-05T09:16:34.584Z,84.67
2018-02-05T09:19:02.004Z,84.35
2018-02-05T09:21:29.410Z,84.47
2018-02-05T09:23:56.829Z,85.10
2018-02-05T09:26:24.236Z,84.29
2018-02-05T09:28:51.656Z,84.89
2018-02-05T09:31:19.075Z,84.29
2018-02-05T09:33:46.489Z,84.20
2018-02-05T09:36:13.900Z,84.31
2018-02-05T09:38:41.323Z,83.93
2018-02-05T09:41:08.725Z,83.80
2018-02-05T09:43:36.146Z,83.37
2018-02-05T09:46:03.560Z,82.91
2018-02-05T09:48:30.984Z,83.03
2018-02-05T09:50:58.390Z,83.12
2018-02-05T09:53:25.801Z,82.96
2018-02-05T09:55:53.204Z,82.41
2018-02-05T09:58:20.639Z,82.53
2018-02-05T10:00:48.047Z,82.51
2018-02-05T10:03:15.462Z,82.01
2018-02-05T10:05:42.976Z,82.85
2018-02-05T10:08:10.389Z,82.24
2018-02-05T10:10:37.801Z,82.55
2018-02-05T10:13:05.205Z,81.85
2018-02-05T10:15:32.624Z,83.15
2018-02-05T10:18:00.029Z,82.15
2018-02-05T10:20:27.666Z,81.93
2018-02-05T10:22:55.069Z,81.97
2018-02-05T10:25:22.488Z,81.11
2018-02-05T10:27:49.904Z,82.23
2018-02-05T10:30:17.321Z,81.88
2018-02-05T10:32:44.735Z,81.91
2018-02-05T10:35:12.154Z,81.85
2018-02-05T10:37:39.556Z,80.78
2018-02-05T10:40:06.976Z,81.10
2018-02-05T10:42:34.402Z,81.63
2018-02-05T10:45:01.815Z,81.20
2018-02-05T10:47:29.220Z,81.83
2018-02-05T10:49:56.633Z,82.17
2018-02-05T10:52:24.036Z,82.05
2018-02-05T10:54:51.448Z,81.86
2018-02-05T10:57:18.864Z,82.05
2018-02-05T10:59:46.289Z,82.66
2018-02-05T11:02:14.637Z,82.87
2018-02-05T11:04:42.060Z,82.83
2018-02-05T11:07:09.476Z,82.29
2018-02-05T11:09:36.907Z,81.85
2018-02-05T11:12:04.312Z,81.80
2018-02-05T11:14:31.729Z,81.61
2018-02-05T11:16:59.148Z,80.59
2018-02-05T11:19:26.552Z,80.81
2018-02-05T11:21:53.964Z,80.19
2018-02-05T11:24:21.377Z,80.60
2018-02-05T11:26:48.788Z,80.48
2018-02-05T11:29:16.196Z,80.18
2018-02-05T11:31:43.615Z,80.91
2018-02-05T11:34:11.031Z,80.46
2018-02-05T11:36:38.444Z,81.68
2018-02-05T11:39:05.850Z,81.41
2018-02-05T11:41:33.265Z,80.84
2018-02-05T11:44:00.673Z,81.02
2018-02-05T11:46:28.097Z,80.02
2018-02-05T11:48:55.493Z,80.87
2018-02-05T11:51:22.909Z,79.70
2018-02-05T11:53:50.325Z,79.73
2018-02-05T11:56:17.748Z,80.02
2018-02-05T11:58:45.161Z,79.72
2018-02-05T12:01:12.573Z,79.51
2018-02-05T12:03:39.993Z,80.17
2018-02-05T12:06:07.484Z,80.37
2018-02-05T12:08:34.881Z,79.84
2018-02-05T12:11:02.305Z,80.08
2018-02-05T12:13:29.724Z,79.57
2018-02-05T12:15:57.144Z,79.50
2018-02-05T12:18:24.549Z,79.78
2018-02-05T12:20:51.973Z,79.22
2018-02-05T12:23:19.380Z,79.29
2018-02-05T12:25:46.785Z,79.32
2018-02-05T12:28:14.204Z,77.87
2018-02-05T12:30:41.626Z,78.00
2018-02-05T12:33:09.033Z,78.63
2018-02-05T12:35:36.444Z,78.46
2018-02-05T12:38:03.860Z,78.13
2018-02-05T12:40:31.270Z,77.68
2018-02-05T12:42:58.693Z,77.14
2018-02-05T12:45:26.096Z,76.00
2018-02-05T12:47:53.517Z,76.29
2018-02-05T12:50:20.932Z,75.86
2018-02-05T12:52:48.357Z,73.80
2018-02-05T12:55:15.764Z,74.52
2018-02-05T12:57:43.177Z,72.86
2018-02-05T13:00:16.092Z,73.00
2018-02-05T13:05:50.234Z,73.94
2018-02-05T13:08:17.661Z,72.78
2018-02-05T13:10:45.071Z,67.47
2018-02-05T13:13:12.486Z,66.29
2018-02-05T13:15:39.892Z,70.97
2018-02-05T13:18:07.304Z,64.62
2018-02-05T13:20:34.716Z,64.80
2018-02-05T13:23:02.128Z,62.57
2018-02-05T13:25:29.536Z,63.53
2018-02-05T13:27:56.958Z,63.32
2018-02-05T13:30:24.369Z,63.94
2018-02-05T13:32:52.160Z,63.26
2018-02-05T13:35:19.586Z,63.12
2018-02-05T13:37:46.996Z,61.10
2018-02-05T13:40:14.415Z,62.42
2018-02-05T13:42:41.828Z,62.99
2018-02-05T13:45:09.230Z,62.96
2018-02-05T13:47:36.645Z,62.05
2018-02-05T13:50:04.053Z,62.06
2018-02-05T13:52:31.484Z,66.10
2018-02-05T13:54:58.889Z,69.28
2018-02-05T13:57:26.302Z,69.97
2018-02-05T13:59:53.724Z,70.26
2018-02-05T14:02:21.133Z,71.96
2018-02-05T14:04:48.559Z,72.62
2018-02-05T14:07:15.979Z,72.95
2018-02-05T14:09:43.385Z,68.11
2018-02-05T14:12:10.794Z,65.98
2018-02-05T14:14:38.209Z,68.21
2018-02-05T14:17:05.669Z,66.28
2018-02-05T14:19:33.076Z,67.39
2018-02-05T14:22:00.486Z,70.63
2018-02-05T14:24:27.914Z,72.70
2018-02-05T14:26:55.320Z,72.86
2018-02-05T14:29:23.093Z,72.54
2018-02-05T14:31:50.498Z,73.26
2018-02-05T14:34:17.912Z,73.83
2018-02-05T14:36:45.329Z,73.28
2018-02-05T14:39:12.740Z,74.10
2018-02-05T14:41:40.146Z,74.42
2018-02-05T14:44:07.564Z,74.58
2018-02-05T14:46:34.968Z,74.50
2018-02-05T14:49:02.415Z,74.86
2018-02-05T14:51:29.808Z,74.83
2018-02-05T14:53:57.226Z,74.82
2018-02-05T14:56:24.637Z,75.35
2018-02-05T14:58:52.105Z,75.12
2018-02-05T15:01:19.515Z,75.62
2018-02-05T15:03:46.940Z,75.21
2018-02-05T15:06:14.348Z,75.46
2018-02-05T15:08:41.758Z,75.06
2018-02-05T15:11:09.172Z,75.09
2018-02-05T15:13:36.580Z,75.21
2018-02-05T15:16:04.593Z,75.47
2018-02-05T15:18:32.002Z,75.48
2018-02-05T15:20:59.835Z,75.18
2018-02-05T15:23:27.237Z,75.12
2018-02-05T15:25:54.660Z,74.81
2018-02-05T15:28:22.056Z,74.75
2018-02-05T15:30:49.492Z,75.32
2018-02-05T15:33:16.897Z,75.85
2018-02-05T15:35:44.317Z,75.47
2018-02-05T15:38:11.724Z,76.41
2018-02-05T15:40:39.140Z,75.95
2018-02-05T15:43:06.555Z,76.48
2018-02-05T15:45:33.965Z,76.86
2018-02-05T15:48:01.386Z,77.21
2018-02-05T15:50:29.226Z,77.55
2018-02-05T15:52:56.625Z,78.34
2018-02-05T15:55:24.059Z,78.95
2018-02-05T15:57:51.461Z,78.79
2018-02-05T16:00:18.877Z,79.19
2018-02-05T16:02:46.305Z,79.56
2018-02-05T16:05:13.712Z,79.79
2018-02-05T16:07:41.129Z,79.97
2018-02-05T16:10:08.540Z,80.66
2018-02-05T16:12:35.955Z,80.74
2018-02-05T16:15:03.350Z,80.58
2018-02-05T16:17:30.767Z,81.08
2018-02-05T16:19:58.165Z,81.46
2018-02-05T16:22:26.254Z,81.47
2018-02-05T16:24:53.655Z,81.65
2018-02-05T16:27:21.064Z,81.97
2018-02-05T16:29:48.477Z,81.90
2018-02-05T16:32:15.896Z,81.80
2018-02-05T16:34:43.296Z,82.13
2018-02-05T16:37:10.716Z,82.07
2018-02-05T16:39:38.130Z,82.27
2018-02-05T16:42:05.597Z,82.43
2018-02-05T16:44:33.008Z,82.33
2018-02-05T16:47:00.408Z,82.09
2018-02-05T16:49:27.812Z,82.47
2018-02-05T16:51:55.221Z,82.34
2018-02-05T16:54:22.624Z,82.11
2018-02-05T16:56:50.036Z,82.18
2018-02-05T16:59:17.453Z,82.38
2018-02-05T17:01:44.861Z,82.08
2018-02-05T17:04:12.271Z,82.38
2018-02-05T17:06:39.680Z,82.24
2018-02-05T17:09:07.084Z,82.25
2018-02-05T17:11:34.507Z,82.22
2018-02-05T17:14:01.907Z,82.29
2018-02-05T17:16:29.322Z,82.57
2018-02-05T17:18:56.716Z,82.68
2018-02-05T17:21:24.141Z,82.66
2018-02-05T17:23:51.541Z,82.55
2018-02-05T17:26:18.944Z,82.96
2018-02-05T17:28:46.352Z,83.37
2018-02-05T17:31:13.756Z,83.42
2018-02-05T17:33:41.176Z,83.49
2018-02-05T17:36:09.585Z,83.44
2018-02-05T17:38:36.999Z,83.46
2018-02-05T17:41:04.401Z,83.78
2018-02-05T17:43:32.028Z,83.95
2018-02-05T17:45:59.428Z,83.87
2018-02-05T17:48:26.845Z,84.05
2018-02-05T17:50:54.257Z,84.29
2018-02-05T17:53:21.669Z,83.99
2018-02-05T17:55:49.078Z,84.00
2018-02-05T17:58:16.484Z,83.86
2018-02-05T18:00:44.376Z,84.13
2018-02-05T18:03:11.794Z,84.18
2018-02-05T18:05:39.205Z,84.19
2018-02-05T18:08:06.612Z,84.17
2018-02-05T18:10:34.040Z,84.17
2018-02-05T18:13:01.440Z,84.24
2018-02-05T18:15:29.805Z,84.18
2018-02-05T18:17:57.222Z,84.56
2018-02-05T18:20:24.619Z,84.25
2018-02-05T18:22:52.050Z,84.42
2018-02-05T18:25:19.448Z,84.10
2018-02-05T18:27:46.860Z,84.15
2018-02-05T18:30:15.205Z,84.29
2018-02-05T18:32:42.635Z,84.36
2018-02-05T18:35:10.612Z,84.38
2018-02-05T18:37:38.032Z,84.46
2018-02-05T18:40:05.445Z,84.44
2018-02-05T18:42:32.854Z,84.06
2018-02-05T18:45:00.696Z,83.91
2018-02-05T18:47:28.089Z,83.78
2018-02-05T18:49:55.511Z,84.10
2018-02-05T18:52:22.919Z,84.43
2018-02-05T18:54:50.770Z,83.94
2018-02-05T18:57:18.173Z,83.46
2018-02-05T18:59:45.588Z,83.84
2018-02-05T19:02:22.692Z,83.91
2018-02-05T19:04:50.113Z,84.09
2018-02-05T19:07:18.640Z,84.00
2018-02-05T19:09:46.059Z,84.11
2018-02-05T19:12:13.787Z,83.86
2018-02-05T19:14:41.243Z,83.79
2018-02-05T19:17:08.643Z,83.64
2018-02-05T19:19:36.085Z,83.80
2018-02-05T19:22:03.501Z,83.48
2018-02-05T19:24:30.924Z,83.60
2018-02-05T19:26:58.374Z,83.68
2018-02-05T19:29:25.778Z,83.43
2018-02-05T19:31:53.188Z,83.73
2018-02-05T19:34:20.604Z,83.53
2018-02-05T19:36:48.008Z,83.59
2018-02-05T19:39:15.434Z,83.46
2018-02-05T19:41:43.642Z,83.46
2018-02-05T19:44:11.065Z,83.80
2018-02-05T19:46:38.475Z,83.82
2018-02-05T19:49:05.896Z,83.43
2018-02-05T19:51:33.309Z,83.49
2018-02-05T19:54:00.708Z,83.83
2018-02-05T19:56:28.129Z,83.57
2018-02-05T19:58:55.579Z,83.34
2018-02-05T20:01:22.985Z,83.58
2018-02-05T20:03:50.431Z,83.65
2018-02-05T20:06:17.837Z,83.31
2018-02-05T20:08:45.236Z,83.40
2018-02-05T20:11:12.662Z,83.30
2018-02-05T20:13:40.121Z,83.28
2018-02-05T20:16:07.525Z,83.23
2018-02-05T20:18:34.935Z,83.29
2018-02-05T20:21:02.370Z,83.26
2018-02-05T20:23:29.766Z,83.13
2018-02-05T20:25:57.172Z,82.82
2018-02-05T20:28:24.581Z,82.79
2018-02-05T20:30:52.552Z,82.66
2018-02-05T20:33:20.008Z,82.84
2018-02-05T20:35:47.408Z,82.86
2018-02-05T20:38:14.813Z,82.61
2018-02-05T20:40:42.277Z,82.81
2018-02-05T20:43:09.678Z,82.60
2018-02-05T20:45:37.090Z,82.51
2018-02-05T20:48:05.039Z,82.65
2018-02-05T20:50:32.445Z,82.98
2018-02-05T20:53:00.688Z,82.87
2018-02-05T20:55:28.164Z,83.01
2018-02-05T20:57:55.565Z,82.96
2018-02-05T21:00:22.987Z,83.18
2018-02-05T21:02:50.389Z,83.42
2018-02-05T21:05:17.864Z,83.85
2018-02-05T21:07:45.305Z,83.85
2018-02-05T21:10:12.697Z,83.92
2018-02-05T21:12:40.108Z,83.83
2018-02-05T21:15:07.570Z,83.81
2018-02-05T21:17:36.044Z,83.65
2018-02-05T21:20:03.573Z,83.61
2018-02-05T21:22:31.480Z,83.52
2018-02-05T21:24:58.944Z,83.16
2018-02-05T21:27:26.344Z,82.91
2018-02-05T21:29:54.587Z,83.15
2018-02-05T21:32:22.024Z,83.38
2018-02-05T21:34:49.434Z,83.45
2018-02-05T21:37:16.840Z,83.19
2018-02-05T21:39:47.094Z,83.22
2018-02-05T21:42:14.513Z,83.05
2018-02-05T21:44:41.960Z,83.06
2018-02-05T21:47:09.365Z,82.83
2018-02-05T21:49:37.609Z,82.57
2018-02-05T21:52:05.022Z,82.68
2018-02-05T21:54:32.975Z,82.65
2018-02-05T21:57:00.396Z,82.33
2018-02-05T22:02:40.733Z,82.68
2018-02-05T22:05:08.153Z,82.62
2018-02-05T22:07:35.604Z,82.38
2018-02-05T22:10:03.009Z,82.39
2018-02-05T22:12:30.444Z,82.37
2018-02-05T22:14:57.904Z,82.60
2018-02-05T22:17:25.313Z,82.43
2018-02-05T22:19:52.727Z,82.23
2018-02-05T22:22:20.144Z,82.41
2018-02-05T22:24:47.551Z,82.29
2018-02-05T22:27:14.985Z,82.89
2018-02-05T22:29:42.397Z,83.22
2018-02-05T22:32:09.827Z,82.91
2018-02-05T22:34:37.265Z,83.10
2018-02-05T22:37:04.676Z,83.18
2018-02-05T22:39:32.095Z,83.54
2018-02-05T22:41:59.507Z,83.80
2018-02-05T22:44:26.924Z,83.82
2018-02-05T22:46:54.341Z,84.00
2018-02-05T22:49:21.761Z,84.13
2018-02-05T22:51:49.165Z,84.18
2018-02-05T22:54:16.589Z,83.84
2018-02-05T22:56:44.004Z,83.71
2018-02-05T22:59:11.424Z,83.80
2018-02-05T23:01:38.834Z,83.51
2018-02-05T23:04:06.248Z,83.61
2018-02-05T23:06:33.661Z,83.41
2018-02-05T23:09:01.077Z,83.41
2018-02-05T23:11:29.404Z,83.25
2018-02-05T23:13:56.887Z,83.47
2018-02-05T23:16:24.292Z,83.46
2018-02-05T23:18:51.713Z,83.37
2018-02-05T23:21:19.122Z,83.33
2018-02-05T23:23:46.538Z,83.13
2018-02-05T23:26:13.944Z,83.45
2018-02-05T23:28:41.361Z,83.31
2018-02-05T23:31:08.788Z,83.35
2018-02-05T23:33:36.864Z,83.48
2018-02-05T23:36:04.277Z,83.43
2018-02-05T23:38:31.764Z,83.51
2018-02-05T23:40:59.173Z,83.05
2018-02-05T23:43:26.592Z,83.44
2018-02-05T23:45:54.004Z,83.37
2018-02-05T23:48:21.449Z,83.45
2018-02-05T23:50:48.848Z,83.11
2018-02-05T23:53:16.265Z,82.96
2018-02-05T23:55:43.686Z,82.51
2018-02-05T23:58:11.103Z,82.18
